Terminal Aerodrome Forecast
Issued by NWS

Home | Current Version | Previous Version | Text Only | Print | Product List | Glossary On
Versions: 1 2 3 4 5 6 7 8 9 10 11 12 13
000
FTUS42 TJSJ 181700
TAFKPK
TAF
TKPK 181734Z 1818/1918 08010KT P6SM VCTS SCT015CB
     FM190000 07010KT P6SM VCSH SCT020
      AMD NOT SKED 1902/1911=

USA.gov is the U.S. government's official web portal to all federal, state and local government web resources and services.